Terminal Aerodrome Forecast
Issued by NWS Northern Indiana

Home | Current Version | Previous Version | Graphics & Text | Print | Product List | Glossary On
Versions: 1 2 3 4 5 6 7 8 9 10 11 12 13 14 15 16 17
000
FTUS43 KIWX 180529
TAFFWA
TAF
KFWA 180529Z 1806/1906 04003KT P6SM SCT030
     FM181600 10010KT P6SM OVC070
     FM182200 04008KT 5SM -RA BR OVC015
     FM190200 35010KT 3SM -SN BR OVC008=

USA.gov is the U.S. government's official web portal to all federal, state and local government web resources and services.